sensor_id;sensor_type;location;lat;lon;timestamp;temperature;humidity
64226;DHT22;50545;56.064;26.178;2023-04-03T00:01:05;-1.40;95.10
64226;DHT22;50545;56.064;26.178;2023-04-03T00:03:33;-1.40;96.20
64226;DHT22;50545;56.064;26.178;2023-04-03T00:06:01;-1.40;95.70
64226;DHT22;50545;56.064;26.178;2023-04-03T00:08:28;-1.40;95.30
64226;DHT22;50545;56.064;26.178;2023-04-03T00:10:57;-1.40;94.90
64226;DHT22;50545;56.064;26.178;2023-04-03T00:13:25;-1.40;96.20
64226;DHT22;50545;56.064;26.178;2023-04-03T00:15:52;-1.50;95.70
64226;DHT22;50545;56.064;26.178;2023-04-03T00:18:20;-1.50;95.80
64226;DHT22;50545;56.064;26.178;2023-04-03T00:20:48;-1.50;95.40
64226;DHT22;50545;56.064;26.178;2023-04-03T00:23:16;-1.50;95.70
64226;DHT22;50545;56.064;26.178;2023-04-03T00:25:43;-1.50;95.90
64226;DHT22;50545;56.064;26.178;2023-04-03T00:28:11;-1.50;96.20
64226;DHT22;50545;56.064;26.178;2023-04-03T00:30:38;-1.50;96.50
64226;DHT22;50545;56.064;26.178;2023-04-03T00:33:05;-1.50;95.90
64226;DHT22;50545;56.064;26.178;2023-04-03T00:35:34;-1.50;95.70
64226;DHT22;50545;56.064;26.178;2023-04-03T00:38:02;-1.60;96.30
64226;DHT22;50545;56.064;26.178;2023-04-03T00:40:37;-1.60;95.90
64226;DHT22;50545;56.064;26.178;2023-04-03T00:43:12;-1.60;96.40
64226;DHT22;50545;56.064;26.178;2023-04-03T00:45:44;-1.70;95.70
64226;DHT22;50545;56.064;26.178;2023-04-03T00:48:23;-1.60;96.00
64226;DHT22;50545;56.064;26.178;2023-04-03T00:50:52;-1.60;96.20
64226;DHT22;50545;56.064;26.178;2023-04-03T00:53:25;-1.60;95.50
64226;DHT22;50545;56.064;26.178;2023-04-03T00:55:54;-1.60;95.80
64226;DHT22;50545;56.064;26.178;2023-04-03T00:58:32;-1.70;97.00
64226;DHT22;50545;56.064;26.178;2023-04-03T01:01:05;-1.70;96.80
64226;DHT22;50545;56.064;26.178;2023-04-03T01:03:33;-1.70;96.10
64226;DHT22;50545;56.064;26.178;2023-04-03T01:06:01;-1.70;96.20
64226;DHT22;50545;56.064;26.178;2023-04-03T01:08:28;-1.70;97.00
64226;DHT22;50545;56.064;26.178;2023-04-03T01:10:56;-1.70;96.70
64226;DHT22;50545;56.064;26.178;2023-04-03T01:13:27;-1.70;97.30
64226;DHT22;50545;56.064;26.178;2023-04-03T01:15:55;-1.80;96.80
64226;DHT22;50545;56.064;26.178;2023-04-03T01:18:24;-1.80;96.20
64226;DHT22;50545;56.064;26.178;2023-04-03T01:23:53;-1.80;97.40
64226;DHT22;50545;56.064;26.178;2023-04-03T01:26:21;-1.70;96.80
64226;DHT22;50545;56.064;26.178;2023-04-03T01:28:48;-1.80;97.20
64226;DHT22;50545;56.064;26.178;2023-04-03T01:31:30;-1.80;97.70
64226;DHT22;50545;56.064;26.178;2023-04-03T01:33:58;-1.80;97.40
64226;DHT22;50545;56.064;26.178;2023-04-03T01:36:30;-1.80;97.70
64226;DHT22;50545;56.064;26.178;2023-04-03T01:38:59;-1.90;97.50
64226;DHT22;50545;56.064;26.178;2023-04-03T01:41:27;-1.80;96.90
64226;DHT22;50545;56.064;26.178;2023-04-03T01:43:54;-1.80;96.90
64226;DHT22;50545;56.064;26.178;2023-04-03T01:46:22;-1.80;97.50
64226;DHT22;50545;56.064;26.178;2023-04-03T01:48:49;-1.80;97.20
64226;DHT22;50545;56.064;26.178;2023-04-03T01:51:17;-1.90;97.70
64226;DHT22;50545;56.064;26.178;2023-04-03T01:53:44;-1.80;97.40
64226;DHT22;50545;56.064;26.178;2023-04-03T01:56:11;-1.80;97.50
64226;DHT22;50545;56.064;26.178;2023-04-03T01:58:39;-1.90;98.00
64226;DHT22;50545;56.064;26.178;2023-04-03T02:01:06;-1.90;97.70
64226;DHT22;50545;56.064;26.178;2023-04-03T02:03:34;-1.90;98.00
64226;DHT22;50545;56.064;26.178;2023-04-03T02:06:01;-2.00;98.40
64226;DHT22;50545;56.064;26.178;2023-04-03T02:08:28;-1.90;98.60
64226;DHT22;50545;56.064;26.178;2023-04-03T02:10:55;-2.00;98.10
64226;DHT22;50545;56.064;26.178;2023-04-03T02:13:23;-2.00;97.80
64226;DHT22;50545;56.064;26.178;2023-04-03T02:15:50;-2.00;98.40
64226;DHT22;50545;56.064;26.178;2023-04-03T02:18:17;-2.00;99.00
64226;DHT22;50545;56.064;26.178;2023-04-03T02:20:46;-2.00;99.00
64226;DHT22;50545;56.064;26.178;2023-04-03T02:23:14;-2.10;99.10
64226;DHT22;50545;56.064;26.178;2023-04-03T02:25:41;-2.10;98.90
64226;DHT22;50545;56.064;26.178;2023-04-03T02:28:08;-2.10;99.40
64226;DHT22;50545;56.064;26.178;2023-04-03T02:30:35;-2.10;99.60
64226;DHT22;50545;56.064;26.178;2023-04-03T02:33:03;-2.00;99.20
64226;DHT22;50545;56.064;26.178;2023-04-03T02:35:30;-2.00;99.30
64226;DHT22;50545;56.064;26.178;2023-04-03T02:37:58;-2.00;99.80
64226;DHT22;50545;56.064;26.178;2023-04-03T02:40:25;-2.00;99.60
64226;DHT22;50545;56.064;26.178;2023-04-03T02:42:52;-2.10;99.90
64226;DHT22;50545;56.064;26.178;2023-04-03T02:45:19;-2.10;99.90
64226;DHT22;50545;56.064;26.178;2023-04-03T02:47:46;-2.10;99.90
64226;DHT22;50545;56.064;26.178;2023-04-03T02:50:14;-2.10;99.90
64226;DHT22;50545;56.064;26.178;2023-04-03T02:52:41;-2.10;99.90
64226;DHT22;50545;56.064;26.178;2023-04-03T02:55:08;-2.10;99.90
64226;DHT22;50545;56.064;26.178;2023-04-03T02:57:35;-2.10;99.90
64226;DHT22;50545;56.064;26.178;2023-04-03T03:00:03;-2.10;99.90
64226;DHT22;50545;56.064;26.178;2023-04-03T03:02:30;-2.10;99.90
64226;DHT22;50545;56.064;26.178;2023-04-03T03:04:58;-2.10;99.90
64226;DHT22;50545;56.064;26.178;2023-04-03T03:07:25;-2.10;99.90
64226;DHT22;50545;56.064;26.178;2023-04-03T03:09:52;-2.10;99.90
64226;DHT22;50545;56.064;26.178;2023-04-03T03:12:20;-2.10;99.90
64226;DHT22;50545;56.064;26.178;2023-04-03T03:14:48;-2.10;99.90
64226;DHT22;50545;56.064;26.178;2023-04-03T03:17:16;-2.20;99.90
64226;DHT22;50545;56.064;26.178;2023-04-03T03:19:44;-2.20;99.90
64226;DHT22;50545;56.064;26.178;2023-04-03T03:22:12;-2.20;99.90
64226;DHT22;50545;56.064;26.178;2023-04-03T03:24:39;-2.20;99.90
64226;DHT22;50545;56.064;26.178;2023-04-03T03:27:07;-2.20;99.90
64226;DHT22;50545;56.064;26.178;2023-04-03T03:29:34;-2.20;99.90
64226;DHT22;50545;56.064;26.178;2023-04-03T03:32:01;-2.20;99.90
64226;DHT22;50545;56.064;26.178;2023-04-03T03:34:29;-2.20;99.90
64226;DHT22;50545;56.064;26.178;2023-04-03T03:36:56;-2.20;99.90
64226;DHT22;50545;56.064;26.178;2023-04-03T03:39:23;-2.30;99.90
64226;DHT22;50545;56.064;26.178;2023-04-03T03:41:50;-2.30;99.90
64226;DHT22;50545;56.064;26.178;2023-04-03T03:44:20;-2.30;99.90
64226;DHT22;50545;56.064;26.178;2023-04-03T03:46:48;-2.30;99.90
64226;DHT22;50545;56.064;26.178;2023-04-03T03:49:15;-2.30;99.90
64226;DHT22;50545;56.064;26.178;2023-04-03T03:51:42;-2.30;99.90
64226;DHT22;50545;56.064;26.178;2023-04-03T03:54:09;-2.30;99.90
64226;DHT22;50545;56.064;26.178;2023-04-03T03:56:37;-2.30;99.90
64226;DHT22;50545;56.064;26.178;2023-04-03T03:59:04;-2.30;99.90
64226;DHT22;50545;56.064;26.178;2023-04-03T04:01:32;-2.30;99.90
64226;DHT22;50545;56.064;26.178;2023-04-03T04:03:59;-2.30;99.90
64226;DHT22;50545;56.064;26.178;2023-04-03T04:06:27;-2.30;99.90
64226;DHT22;50545;56.064;26.178;2023-04-03T04:08:54;-2.30;99.90
64226;DHT22;50545;56.064;26.178;2023-04-03T04:11:21;-2.30;99.90
64226;DHT22;50545;56.064;26.178;2023-04-03T04:13:49;-2.20;99.90
64226;DHT22;50545;56.064;26.178;2023-04-03T04:16:16;-2.30;99.90
64226;DHT22;50545;56.064;26.178;2023-04-03T04:18:43;-2.20;99.90
64226;DHT22;50545;56.064;26.178;2023-04-03T04:21:10;-2.20;99.90
64226;DHT22;50545;56.064;26.178;2023-04-03T04:23:37;-2.20;99.90
64226;DHT22;50545;56.064;26.178;2023-04-03T04:26:04;-2.20;99.90
64226;DHT22;50545;56.064;26.178;2023-04-03T04:28:32;-2.20;99.90
64226;DHT22;50545;56.064;26.178;2023-04-03T04:30:59;-2.20;99.90
64226;DHT22;50545;56.064;26.178;2023-04-03T04:33:26;-2.20;99.90
64226;DHT22;50545;56.064;26.178;2023-04-03T04:35:53;-2.10;99.90
64226;DHT22;50545;56.064;26.178;2023-04-03T04:38:21;-2.10;99.90
64226;DHT22;50545;56.064;26.178;2023-04-03T04:40:49;-2.10;99.90
64226;DHT22;50545;56.064;26.178;2023-04-03T04:43:16;-2.10;99.90
64226;DHT22;50545;56.064;26.178;2023-04-03T04:45:43;-2.00;99.90
64226;DHT22;50545;56.064;26.178;2023-04-03T04:48:10;-2.00;99.90
64226;DHT22;50545;56.064;26.178;2023-04-03T04:50:38;-2.00;99.90
64226;DHT22;50545;56.064;26.178;2023-04-03T04:53:05;-2.00;99.90
64226;DHT22;50545;56.064;26.178;2023-04-03T04:55:32;-1.90;99.90
64226;DHT22;50545;56.064;26.178;2023-04-03T04:57:59;-1.90;99.90
64226;DHT22;50545;56.064;26.178;2023-04-03T05:00:26;-1.90;99.90
64226;DHT22;50545;56.064;26.178;2023-04-03T05:02:54;-1.90;99.90
64226;DHT22;50545;56.064;26.178;2023-04-03T05:05:21;-1.80;99.90
64226;DHT22;50545;56.064;26.178;2023-04-03T05:07:49;-1.80;99.90
64226;DHT22;50545;56.064;26.178;2023-04-03T05:10:16;-1.70;99.90
64226;DHT22;50545;56.064;26.178;2023-04-03T05:12:44;-1.70;99.90
64226;DHT22;50545;56.064;26.178;2023-04-03T05:15:11;-1.60;99.90
64226;DHT22;50545;56.064;26.178;2023-04-03T05:17:38;-1.60;99.90
64226;DHT22;50545;56.064;26.178;2023-04-03T05:20:06;-1.50;99.90
64226;DHT22;50545;56.064;26.178;2023-04-03T05:22:33;-1.50;99.90
64226;DHT22;50545;56.064;26.178;2023-04-03T05:25:00;-1.40;99.90
64226;DHT22;50545;56.064;26.178;2023-04-03T05:27:27;-1.40;99.90
64226;DHT22;50545;56.064;26.178;2023-04-03T05:29:55;-1.40;99.90
64226;DHT22;50545;56.064;26.178;2023-04-03T05:32:23;-1.40;99.90
64226;DHT22;50545;56.064;26.178;2023-04-03T05:34:51;-1.30;99.90
64226;DHT22;50545;56.064;26.178;2023-04-03T05:37:18;-1.30;99.90
64226;DHT22;50545;56.064;26.178;2023-04-03T05:39:46;-1.20;99.90
64226;DHT22;50545;56.064;26.178;2023-04-03T05:42:13;-1.20;99.90
64226;DHT22;50545;56.064;26.178;2023-04-03T05:44:40;-1.20;99.90
64226;DHT22;50545;56.064;26.178;2023-04-03T05:47:08;-1.10;99.90
64226;DHT22;50545;56.064;26.178;2023-04-03T05:49:35;-1.10;99.90
64226;DHT22;50545;56.064;26.178;2023-04-03T05:52:02;-1.10;99.90
64226;DHT22;50545;56.064;26.178;2023-04-03T05:54:30;-1.10;99.90
64226;DHT22;50545;56.064;26.178;2023-04-03T05:56:57;-1.10;99.90
64226;DHT22;50545;56.064;26.178;2023-04-03T05:59:24;-1.10;99.90
64226;DHT22;50545;56.064;26.178;2023-04-03T06:01:52;-1.10;99.90
64226;DHT22;50545;56.064;26.178;2023-04-03T06:04:19;-1.10;99.90
64226;DHT22;50545;56.064;26.178;2023-04-03T06:06:49;-1.10;99.70
64226;DHT22;50545;56.064;26.178;2023-04-03T06:09:22;-1.10;99.50
64226;DHT22;50545;56.064;26.178;2023-04-03T06:11:50;-1.00;99.90
64226;DHT22;50545;56.064;26.178;2023-04-03T06:14:19;-1.00;99.90
64226;DHT22;50545;56.064;26.178;2023-04-03T06:16:46;-0.90;99.90
64226;DHT22;50545;56.064;26.178;2023-04-03T06:19:14;-0.90;99.90
64226;DHT22;50545;56.064;26.178;2023-04-03T06:21:41;-0.80;99.90
64226;DHT22;50545;56.064;26.178;2023-04-03T06:24:10;-0.80;99.90
64226;DHT22;50545;56.064;26.178;2023-04-03T06:26:39;-0.80;99.20
64226;DHT22;50545;56.064;26.178;2023-04-03T06:29:06;-0.80;99.40
64226;DHT22;50545;56.064;26.178;2023-04-03T06:31:34;-0.80;98.00
64226;DHT22;50545;56.064;26.178;2023-04-03T06:34:03;-0.80;98.80
64226;DHT22;50545;56.064;26.178;2023-04-03T06:36:34;-0.80;98.80
64226;DHT22;50545;56.064;26.178;2023-04-03T06:39:03;-0.80;98.30
64226;DHT22;50545;56.064;26.178;2023-04-03T06:41:30;-0.80;97.40
64226;DHT22;50545;56.064;26.178;2023-04-03T06:43:58;-0.80;98.80
64226;DHT22;50545;56.064;26.178;2023-04-03T06:46:26;-0.70;97.00
64226;DHT22;50545;56.064;26.178;2023-04-03T06:48:54;-0.70;96.20
64226;DHT22;50545;56.064;26.178;2023-04-03T06:51:26;-0.70;96.80
64226;DHT22;50545;56.064;26.178;2023-04-03T06:53:56;-0.70;97.10
64226;DHT22;50545;56.064;26.178;2023-04-03T06:56:24;-0.70;96.10
64226;DHT22;50545;56.064;26.178;2023-04-03T06:58:53;-0.70;96.30
64226;DHT22;50545;56.064;26.178;2023-04-03T07:01:21;-0.60;95.90
64226;DHT22;50545;56.064;26.178;2023-04-03T07:03:49;-0.60;95.30
64226;DHT22;50545;56.064;26.178;2023-04-03T07:06:17;-0.50;98.20
64226;DHT22;50545;56.064;26.178;2023-04-03T07:08:45;-0.50;96.60
64226;DHT22;50545;56.064;26.178;2023-04-03T07:11:15;-0.40;97.80
64226;DHT22;50545;56.064;26.178;2023-04-03T07:13:43;-0.30;96.80
64226;DHT22;50545;56.064;26.178;2023-04-03T07:16:10;-0.30;96.40
64226;DHT22;50545;56.064;26.178;2023-04-03T07:18:38;-0.20;94.90
64226;DHT22;50545;56.064;26.178;2023-04-03T07:21:05;-0.10;95.80
64226;DHT22;50545;56.064;26.178;2023-04-03T07:23:33;-0.10;94.10
64226;DHT22;50545;56.064;26.178;2023-04-03T07:26:00;-0.10;94.20
64226;DHT22;50545;56.064;26.178;2023-04-03T07:28:28;-0.10;94.30
64226;DHT22;50545;56.064;26.178;2023-04-03T07:31:07;0.00;95.70
64226;DHT22;50545;56.064;26.178;2023-04-03T07:33:36;0.00;95.50
64226;DHT22;50545;56.064;26.178;2023-04-03T07:36:05;0.00;93.10
64226;DHT22;50545;56.064;26.178;2023-04-03T07:38:35;0.00;94.10
64226;DHT22;50545;56.064;26.178;2023-04-03T07:41:03;0.10;93.60
64226;DHT22;50545;56.064;26.178;2023-04-03T07:43:30;0.10;92.70
64226;DHT22;50545;56.064;26.178;2023-04-03T07:45:58;0.10;94.80
64226;DHT22;50545;56.064;26.178;2023-04-03T07:48:25;0.30;95.20
64226;DHT22;50545;56.064;26.178;2023-04-03T07:50:53;0.30;92.30
64226;DHT22;50545;56.064;26.178;2023-04-03T07:53:20;0.20;90.80
64226;DHT22;50545;56.064;26.178;2023-04-03T07:55:49;0.10;91.60
64226;DHT22;50545;56.064;26.178;2023-04-03T07:58:18;0.10;91.00
64226;DHT22;50545;56.064;26.178;2023-04-03T08:00:45;0.10;91.00
64226;DHT22;50545;56.064;26.178;2023-04-03T08:03:14;0.20;91.30
64226;DHT22;50545;56.064;26.178;2023-04-03T08:05:45;0.30;91.60
64226;DHT22;50545;56.064;26.178;2023-04-03T08:08:15;0.60;92.20
64226;DHT22;50545;56.064;26.178;2023-04-03T08:10:52;0.80;90.50
64226;DHT22;50545;56.064;26.178;2023-04-03T08:13:20;0.80;90.60
64226;DHT22;50545;56.064;26.178;2023-04-03T08:15:48;0.90;91.60
64226;DHT22;50545;56.064;26.178;2023-04-03T08:18:16;0.90;90.70
64226;DHT22;50545;56.064;26.178;2023-04-03T08:20:43;0.80;90.00
64226;DHT22;50545;56.064;26.178;2023-04-03T08:23:11;0.80;87.20
64226;DHT22;50545;56.064;26.178;2023-04-03T08:25:41;0.80;89.60
64226;DHT22;50545;56.064;26.178;2023-04-03T08:28:10;0.80;90.40
64226;DHT22;50545;56.064;26.178;2023-04-03T08:30:41;0.70;87.40
64226;DHT22;50545;56.064;26.178;2023-04-03T08:33:09;0.60;87.90
64226;DHT22;50545;56.064;26.178;2023-04-03T08:35:41;0.50;90.50
64226;DHT22;50545;56.064;26.178;2023-04-03T08:38:09;0.50;90.40
64226;DHT22;50545;56.064;26.178;2023-04-03T08:40:38;0.50;90.10
64226;DHT22;50545;56.064;26.178;2023-04-03T08:48:06;0.50;90.30
64226;DHT22;50545;56.064;26.178;2023-04-03T08:50:39;0.60;89.40
64226;DHT22;50545;56.064;26.178;2023-04-03T08:53:20;0.70;89.50
64226;DHT22;50545;56.064;26.178;2023-04-03T08:55:50;0.70;86.50
64226;DHT22;50545;56.064;26.178;2023-04-03T08:58:28;0.80;85.10
64226;DHT22;50545;56.064;26.178;2023-04-03T09:01:14;0.90;83.30
64226;DHT22;50545;56.064;26.178;2023-04-03T09:03:43;1.00;82.40
64226;DHT22;50545;56.064;26.178;2023-04-03T09:06:31;1.10;82.30
64226;DHT22;50545;56.064;26.178;2023-04-03T09:09:13;0.90;81.30
64226;DHT22;50545;56.064;26.178;2023-04-03T09:11:57;0.90;83.30
64226;DHT22;50545;56.064;26.178;2023-04-03T09:14:39;1.10;83.50
64226;DHT22;50545;56.064;26.178;2023-04-03T09:23:19;1.10;83.10
64226;DHT22;50545;56.064;26.178;2023-04-03T09:25:50;1.00;81.70
64226;DHT22;50545;56.064;26.178;2023-04-03T09:28:18;0.90;83.60
64226;DHT22;50545;56.064;26.178;2023-04-03T09:30:45;0.90;84.00
64226;DHT22;50545;56.064;26.178;2023-04-03T09:33:13;0.90;84.60
64226;DHT22;50545;56.064;26.178;2023-04-03T09:35:41;1.10;86.50
64226;DHT22;50545;56.064;26.178;2023-04-03T09:38:20;1.30;84.40
64226;DHT22;50545;56.064;26.178;2023-04-03T09:43:32;1.40;78.60
64226;DHT22;50545;56.064;26.178;2023-04-03T09:46:31;1.40;79.30
64226;DHT22;50545;56.064;26.178;2023-04-03T09:49:02;1.10;81.30
64226;DHT22;50545;56.064;26.178;2023-04-03T09:51:32;0.90;84.60
64226;DHT22;50545;56.064;26.178;2023-04-03T09:54:00;0.90;85.20
64226;DHT22;50545;56.064;26.178;2023-04-03T09:56:29;0.90;85.10
64226;DHT22;50545;56.064;26.178;2023-04-03T10:01:31;0.90;84.20
64226;DHT22;50545;56.064;26.178;2023-04-03T10:04:17;0.90;86.60
64226;DHT22;50545;56.064;26.178;2023-04-03T10:06:53;1.00;86.10
64226;DHT22;50545;56.064;26.178;2023-04-03T10:09:33;1.00;82.80
64226;DHT22;50545;56.064;26.178;2023-04-03T10:12:01;1.00;82.90
64226;DHT22;50545;56.064;26.178;2023-04-03T10:14:33;1.10;82.60
64226;DHT22;50545;56.064;26.178;2023-04-03T10:17:26;1.10;81.70
64226;DHT22;50545;56.064;26.178;2023-04-03T10:20:22;1.10;82.60
64226;DHT22;50545;56.064;26.178;2023-04-03T10:23:00;1.00;82.20
64226;DHT22;50545;56.064;26.178;2023-04-03T10:25:42;1.00;82.70
64226;DHT22;50545;56.064;26.178;2023-04-03T10:34:06;1.10;83.00
64226;DHT22;50545;56.064;26.178;2023-04-03T10:45:29;1.50;79.20
64226;DHT22;50545;56.064;26.178;2023-04-03T10:51:06;1.50;77.30
64226;DHT22;50545;56.064;26.178;2023-04-03T10:56:23;1.60;77.70
64226;DHT22;50545;56.064;26.178;2023-04-03T10:59:28;1.70;75.90
64226;DHT22;50545;56.064;26.178;2023-04-03T11:02:17;1.70;75.00
64226;DHT22;50545;56.064;26.178;2023-04-03T11:05:06;1.70;76.80
64226;DHT22;50545;56.064;26.178;2023-04-03T11:07:40;1.70;75.80
64226;DHT22;50545;56.064;26.178;2023-04-03T11:10:14;1.70;76.90
64226;DHT22;50545;56.064;26.178;2023-04-03T11:13:21;1.50;76.50
64226;DHT22;50545;56.064;26.178;2023-04-03T11:15:40;1.40;77.30
64226;DHT22;50545;56.064;26.178;2023-04-03T11:18:13;1.40;76.20
64226;DHT22;50545;56.064;26.178;2023-04-03T11:20:47;1.50;76.10
64226;DHT22;50545;56.064;26.178;2023-04-03T11:23:29;1.70;80.30
64226;DHT22;50545;56.064;26.178;2023-04-03T11:26:19;1.80;78.20
64226;DHT22;50545;56.064;26.178;2023-04-03T11:28:53;1.90;75.80
64226;DHT22;50545;56.064;26.178;2023-04-03T11:31:35;2.00;77.10
64226;DHT22;50545;56.064;26.178;2023-04-03T11:37:33;2.00;72.40
64226;DHT22;50545;56.064;26.178;2023-04-03T11:40:08;2.00;72.70
64226;DHT22;50545;56.064;26.178;2023-04-03T11:42:48;1.90;73.50
64226;DHT22;50545;56.064;26.178;2023-04-03T11:47:51;1.90;76.70
64226;DHT22;50545;56.064;26.178;2023-04-03T12:16:30;1.50;81.00
64226;DHT22;50545;56.064;26.178;2023-04-03T12:24:27;1.50;85.80
64226;DHT22;50545;56.064;26.178;2023-04-03T12:27:12;1.50;86.10
64226;DHT22;50545;56.064;26.178;2023-04-03T12:29:50;1.40;90.60
64226;DHT22;50545;56.064;26.178;2023-04-03T12:43:34;1.30;86.40
64226;DHT22;50545;56.064;26.178;2023-04-03T12:54:00;1.80;86.10
64226;DHT22;50545;56.064;26.178;2023-04-03T12:56:30;1.60;83.40
64226;DHT22;50545;56.064;26.178;2023-04-03T12:59:22;1.40;85.00
64226;DHT22;50545;56.064;26.178;2023-04-03T13:01:57;1.30;87.90
64226;DHT22;50545;56.064;26.178;2023-04-03T13:04:26;1.30;86.70
64226;DHT22;50545;56.064;26.178;2023-04-03T13:06:54;1.30;90.10
64226;DHT22;50545;56.064;26.178;2023-04-03T13:09:23;1.30;85.70
64226;DHT22;50545;56.064;26.178;2023-04-03T13:12:03;1.20;86.90
64226;DHT22;50545;56.064;26.178;2023-04-03T13:14:31;1.20;88.80
64226;DHT22;50545;56.064;26.178;2023-04-03T13:17:20;1.20;86.90
64226;DHT22;50545;56.064;26.178;2023-04-03T13:19:48;1.30;90.20
64226;DHT22;50545;56.064;26.178;2023-04-03T13:24:58;1.60;90.00
64226;DHT22;50545;56.064;26.178;2023-04-03T13:27:30;1.80;86.40
64226;DHT22;50545;56.064;26.178;2023-04-03T13:30:00;1.90;87.70
64226;DHT22;50545;56.064;26.178;2023-04-03T13:32:30;1.90;84.20
64226;DHT22;50545;56.064;26.178;2023-04-03T13:34:57;1.80;85.30
64226;DHT22;50545;56.064;26.178;2023-04-03T13:37:37;1.70;89.00
64226;DHT22;50545;56.064;26.178;2023-04-03T13:43:16;1.50;91.00
64226;DHT22;50545;56.064;26.178;2023-04-03T13:48:59;1.60;89.20
64226;DHT22;50545;56.064;26.178;2023-04-03T13:51:43;1.70;88.00
64226;DHT22;50545;56.064;26.178;2023-04-03T13:54:22;1.80;87.60
64226;DHT22;50545;56.064;26.178;2023-04-03T13:56:57;1.90;83.80
64226;DHT22;50545;56.064;26.178;2023-04-03T13:59:29;1.90;83.00
64226;DHT22;50545;56.064;26.178;2023-04-03T14:04:32;2.20;80.10
64226;DHT22;50545;56.064;26.178;2023-04-03T14:06:59;2.20;79.00
64226;DHT22;50545;56.064;26.178;2023-04-03T14:09:27;2.20;80.30
64226;DHT22;50545;56.064;26.178;2023-04-03T14:11:58;2.00;78.70
64226;DHT22;50545;56.064;26.178;2023-04-03T14:14:30;1.80;79.90
64226;DHT22;50545;56.064;26.178;2023-04-03T14:17:02;1.70;81.90
64226;DHT22;50545;56.064;26.178;2023-04-03T14:19:33;1.50;81.90
64226;DHT22;50545;56.064;26.178;2023-04-03T14:24:44;1.10;82.80
64226;DHT22;50545;56.064;26.178;2023-04-03T14:27:25;1.10;83.40
64226;DHT22;50545;56.064;26.178;2023-04-03T14:29:54;1.10;85.20
64226;DHT22;50545;56.064;26.178;2023-04-03T14:32:23;1.20;84.20
64226;DHT22;50545;56.064;26.178;2023-04-03T14:34:52;1.30;84.90
64226;DHT22;50545;56.064;26.178;2023-04-03T14:37:22;1.60;83.50
64226;DHT22;50545;56.064;26.178;2023-04-03T14:39:51;1.80;84.20
64226;DHT22;50545;56.064;26.178;2023-04-03T14:42:30;1.90;82.20
64226;DHT22;50545;56.064;26.178;2023-04-03T14:44:59;2.00;79.70
64226;DHT22;50545;56.064;26.178;2023-04-03T14:47:29;2.00;81.80
64226;DHT22;50545;56.064;26.178;2023-04-03T14:49:59;2.00;81.30
64226;DHT22;50545;56.064;26.178;2023-04-03T14:52:33;2.00;82.00
64226;DHT22;50545;56.064;26.178;2023-04-03T14:55:01;1.80;82.80
64226;DHT22;50545;56.064;26.178;2023-04-03T14:57:30;1.80;83.20
64226;DHT22;50545;56.064;26.178;2023-04-03T14:59:57;1.70;83.00
64226;DHT22;50545;56.064;26.178;2023-04-03T15:02:31;1.60;84.70
64226;DHT22;50545;56.064;26.178;2023-04-03T15:05:02;1.60;86.20
64226;DHT22;50545;56.064;26.178;2023-04-03T15:07:40;1.60;87.10
64226;DHT22;50545;56.064;26.178;2023-04-03T15:10:28;1.60;87.80
64226;DHT22;50545;56.064;26.178;2023-04-03T15:12:56;1.40;90.30
64226;DHT22;50545;56.064;26.178;2023-04-03T15:15:27;1.30;89.10
64226;DHT22;50545;56.064;26.178;2023-04-03T15:17:55;1.20;87.50
64226;DHT22;50545;56.064;26.178;2023-04-03T15:20:26;1.10;90.50
64226;DHT22;50545;56.064;26.178;2023-04-03T15:22:54;0.90;90.00
64226;DHT22;50545;56.064;26.178;2023-04-03T15:25:24;0.90;90.70
64226;DHT22;50545;56.064;26.178;2023-04-03T15:27:55;0.80;90.70
64226;DHT22;50545;56.064;26.178;2023-04-03T15:30:23;0.80;91.40
64226;DHT22;50545;56.064;26.178;2023-04-03T15:32:51;0.80;90.80
64226;DHT22;50545;56.064;26.178;2023-04-03T15:35:18;0.80;90.60
64226;DHT22;50545;56.064;26.178;2023-04-03T15:37:45;0.80;90.60
64226;DHT22;50545;56.064;26.178;2023-04-03T15:40:13;0.70;90.80
64226;DHT22;50545;56.064;26.178;2023-04-03T15:42:40;0.70;91.00
64226;DHT22;50545;56.064;26.178;2023-04-03T15:45:08;0.70;90.70
64226;DHT22;50545;56.064;26.178;2023-04-03T15:47:36;0.70;91.00
64226;DHT22;50545;56.064;26.178;2023-04-03T15:50:04;0.80;91.10
64226;DHT22;50545;56.064;26.178;2023-04-03T15:52:33;0.80;92.10
64226;DHT22;50545;56.064;26.178;2023-04-03T15:55:01;1.00;92.10
64226;DHT22;50545;56.064;26.178;2023-04-03T15:57:28;1.30;89.80
64226;DHT22;50545;56.064;26.178;2023-04-03T16:00:00;1.40;88.70
64226;DHT22;50545;56.064;26.178;2023-04-03T16:02:27;1.70;90.00
64226;DHT22;50545;56.064;26.178;2023-04-03T16:04:55;2.00;85.20
64226;DHT22;50545;56.064;26.178;2023-04-03T16:07:22;2.30;85.10
64226;DHT22;50545;56.064;26.178;2023-04-03T16:09:49;2.50;79.60
64226;DHT22;50545;56.064;26.178;2023-04-03T16:12:16;2.50;79.00
64226;DHT22;50545;56.064;26.178;2023-04-03T16:14:44;2.30;80.10
64226;DHT22;50545;56.064;26.178;2023-04-03T16:17:11;2.20;80.10
64226;DHT22;50545;56.064;26.178;2023-04-03T16:19:38;1.90;80.50
64226;DHT22;50545;56.064;26.178;2023-04-03T16:22:05;1.50;84.80
64226;DHT22;50545;56.064;26.178;2023-04-03T16:24:33;1.30;89.40
64226;DHT22;50545;56.064;26.178;2023-04-03T16:27:00;1.10;90.60
64226;DHT22;50545;56.064;26.178;2023-04-03T16:29:27;1.00;87.80
64226;DHT22;50545;56.064;26.178;2023-04-03T16:31:54;0.90;84.50
64226;DHT22;50545;56.064;26.178;2023-04-03T16:34:23;0.80;85.10
64226;DHT22;50545;56.064;26.178;2023-04-03T16:36:52;0.60;86.20
64226;DHT22;50545;56.064;26.178;2023-04-03T16:39:19;0.60;86.90
64226;DHT22;50545;56.064;26.178;2023-04-03T16:41:47;0.50;86.70
64226;DHT22;50545;56.064;26.178;2023-04-03T16:44:14;0.50;87.60
64226;DHT22;50545;56.064;26.178;2023-04-03T16:46:41;0.40;87.20
64226;DHT22;50545;56.064;26.178;2023-04-03T16:49:09;0.40;88.80
64226;DHT22;50545;56.064;26.178;2023-04-03T16:51:36;0.40;88.70
64226;DHT22;50545;56.064;26.178;2023-04-03T16:54:03;0.30;89.80
64226;DHT22;50545;56.064;26.178;2023-04-03T16:56:30;0.20;90.30
64226;DHT22;50545;56.064;26.178;2023-04-03T16:58:58;0.20;90.90
64226;DHT22;50545;56.064;26.178;2023-04-03T17:01:26;0.20;91.70
64226;DHT22;50545;56.064;26.178;2023-04-03T17:03:54;0.20;92.50
64226;DHT22;50545;56.064;26.178;2023-04-03T17:06:22;0.20;92.60
64226;DHT22;50545;56.064;26.178;2023-04-03T17:08:51;0.10;92.00
64226;DHT22;50545;56.064;26.178;2023-04-03T17:11:19;0.10;92.40
64226;DHT22;50545;56.064;26.178;2023-04-03T17:13:48;0.00;92.60
64226;DHT22;50545;56.064;26.178;2023-04-03T17:16:15;0.00;91.80
64226;DHT22;50545;56.064;26.178;2023-04-03T17:18:44;0.00;92.60
64226;DHT22;50545;56.064;26.178;2023-04-03T17:21:12;-0.10;93.50
64226;DHT22;50545;56.064;26.178;2023-04-03T17:23:43;-0.10;93.20
64226;DHT22;50545;56.064;26.178;2023-04-03T17:26:11;-0.20;93.10
64226;DHT22;50545;56.064;26.178;2023-04-03T17:28:39;-0.20;94.30
64226;DHT22;50545;56.064;26.178;2023-04-03T17:31:07;-0.20;94.20